createdAt,value
2022-12-19T00:01:36.521Z,86.30
2022-12-19T00:04:09.195Z,86.30
2022-12-19T00:06:37.809Z,86.50
2022-12-19T00:09:05.404Z,86.70
2022-12-19T00:11:32.953Z,86.60
2022-12-19T00:14:00.795Z,86.80
2022-12-19T00:16:29.738Z,87.10
2022-12-19T00:18:58.900Z,87.10
2022-12-19T00:21:28.483Z,86.80
2022-12-19T00:23:55.834Z,86.70
2022-12-19T00:26:30.464Z,86.90
2022-12-19T00:29:11.153Z,86.80
2022-12-19T00:31:40.775Z,86.70
2022-12-19T00:34:07.570Z,86.20
2022-12-19T00:36:34.766Z,86.30
2022-12-19T00:39:08.173Z,86.80
2022-12-19T00:41:37.198Z,86.50
2022-12-19T00:44:10.513Z,86.40
2022-12-19T00:46:37.972Z,86.30
2022-12-19T00:49:05.484Z,86.90
2022-12-19T00:51:34.891Z,86.50
2022-12-19T00:54:02.277Z,86.60
2022-12-19T00:56:37.514Z,86.30
2022-12-19T00:59:05.600Z,86.70
2022-12-19T01:01:35.308Z,86.70
2022-12-19T01:06:51.143Z,86.60
2022-12-19T01:09:18.639Z,86.80
2022-12-19T01:12:04.201Z,87.00
2022-12-19T01:14:30.897Z,87.00
2022-12-19T01:16:57.629Z,87.00
2022-12-19T01:19:27.313Z,86.50
2022-12-19T01:21:54.171Z,86.70
2022-12-19T01:24:21.117Z,86.40
2022-12-19T01:26:47.806Z,86.40
2022-12-19T01:29:14.586Z,86.60
2022-12-19T01:31:41.363Z,86.80
2022-12-19T01:34:08.121Z,87.00
2022-12-19T01:36:38.603Z,86.70
2022-12-19T01:39:07.559Z,86.50
2022-12-19T01:41:34.988Z,86.50
2022-12-19T01:44:08.607Z,86.50
2022-12-19T01:46:44.384Z,86.10
2022-12-19T01:49:19.160Z,86.40
2022-12-19T01:51:52.457Z,86.40
2022-12-19T01:54:25.399Z,86.50
2022-12-19T01:56:55.687Z,86.20
2022-12-19T01:59:31.854Z,86.50
2022-12-19T02:02:15.230Z,86.60
2022-12-19T02:04:42.081Z,86.50
2022-12-19T02:07:15.553Z,86.80
2022-12-19T02:09:46.744Z,87.10
2022-12-19T02:12:14.317Z,87.20
2022-12-19T02:14:41.651Z,87.30
2022-12-19T02:17:39.583Z,87.30
2022-12-19T02:20:24.530Z,86.90
2022-12-19T02:23:15.702Z,86.70
2022-12-19T02:26:07.452Z,87.30
2022-12-19T02:28:59.215Z,87.20
2022-12-19T02:31:36.438Z,86.90
2022-12-19T02:34:06.009Z,86.80
2022-12-19T02:36:43.431Z,86.40
2022-12-19T02:39:36.041Z,86.90
2022-12-19T02:42:06.516Z,86.70
2022-12-19T02:44:39.087Z,86.40
2022-12-19T02:47:08.109Z,86.90
2022-12-19T02:49:36.862Z,86.90
2022-12-19T02:52:21.723Z,86.60
2022-12-19T02:54:55.164Z,86.30
2022-12-19T02:57:43.522Z,86.60
2022-12-19T03:00:29.069Z,86.60
2022-12-19T03:03:01.819Z,86.30
2022-12-19T03:05:44.165Z,86.00
2022-12-19T03:08:33.871Z,86.40
2022-12-19T03:11:06.098Z,86.50
2022-12-19T03:13:41.569Z,86.80
2022-12-19T03:16:10.780Z,86.40
2022-12-19T03:18:38.351Z,86.40
2022-12-19T03:21:19.458Z,86.30
2022-12-19T03:23:47.944Z,86.40
2022-12-19T03:26:23.586Z,86.60
2022-12-19T03:29:12.627Z,86.90
2022-12-19T03:31:41.248Z,87.00
2022-12-19T03:34:24.275Z,86.90
2022-12-19T03:36:56.927Z,87.00
2022-12-19T03:39:26.569Z,87.10
2022-12-19T03:42:13.231Z,87.00
2022-12-19T03:44:42.830Z,87.00
2022-12-19T03:47:22.679Z,86.80
2022-12-19T03:49:50.189Z,86.80
2022-12-19T03:52:33.030Z,86.80
2022-12-19T03:55:27.427Z,86.30
2022-12-19T03:57:59.160Z,86.70
2022-12-19T04:00:26.901Z,87.20
2022-12-19T04:02:57.531Z,87.50
2022-12-19T04:05:28.393Z,87.40
2022-12-19T04:08:00.557Z,87.40
2022-12-19T04:10:28.622Z,87.50
2022-12-19T04:13:02.754Z,87.50
2022-12-19T04:15:46.715Z,87.40
2022-12-19T04:18:14.742Z,86.90
2022-12-19T04:20:45.633Z,86.90
2022-12-19T04:23:23.691Z,87.10
2022-12-19T04:25:55.403Z,87.60
2022-12-19T04:28:30.461Z,87.60
2022-12-19T04:30:57.798Z,87.50
2022-12-19T04:33:24.701Z,87.00
2022-12-19T04:35:51.409Z,87.40
2022-12-19T04:38:18.128Z,86.90
2022-12-19T04:40:44.940Z,86.90
2022-12-19T04:43:11.646Z,86.80
2022-12-19T04:45:40.592Z,86.60
2022-12-19T04:48:08.168Z,86.60
2022-12-19T04:50:35.914Z,86.70
2022-12-19T04:53:02.916Z,86.70
2022-12-19T04:55:29.746Z,86.60
2022-12-19T04:57:56.478Z,87.10
2022-12-19T05:00:23.180Z,86.70
2022-12-19T05:02:50.052Z,86.50
2022-12-19T05:05:18.798Z,86.50
2022-12-19T05:07:46.905Z,86.80
2022-12-19T05:10:14.460Z,87.10
2022-12-19T05:12:41.257Z,87.50
2022-12-19T05:15:08.725Z,87.60
2022-12-19T05:17:35.739Z,86.60
2022-12-19T05:20:02.613Z,87.00
2022-12-19T05:22:29.831Z,87.10
2022-12-19T05:24:56.612Z,87.20
2022-12-19T05:27:23.363Z,86.80
2022-12-19T05:29:50.173Z,86.80
2022-12-19T05:32:16.953Z,86.70
2022-12-19T05:34:43.704Z,87.20
2022-12-19T05:37:10.433Z,87.20
2022-12-19T05:39:37.141Z,86.90
2022-12-19T05:42:07.296Z,87.10
2022-12-19T05:44:36.492Z,87.50
2022-12-19T05:47:03.229Z,87.80
2022-12-19T05:49:29.939Z,87.50
2022-12-19T05:51:56.718Z,87.30
2022-12-19T05:54:23.661Z,87.40
2022-12-19T05:56:50.375Z,87.30
2022-12-19T05:59:17.124Z,87.20
2022-12-19T06:01:43.869Z,87.20
2022-12-19T06:04:10.643Z,87.40
2022-12-19T06:06:37.999Z,87.10
2022-12-19T06:09:05.050Z,87.00
2022-12-19T06:11:31.799Z,86.90
2022-12-19T06:13:58.582Z,86.90
2022-12-19T06:16:25.390Z,87.00
2022-12-19T06:18:52.120Z,87.30
2022-12-19T06:21:21.043Z,87.30
2022-12-19T06:23:48.595Z,87.20
2022-12-19T06:26:19.918Z,87.20
2022-12-19T06:28:51.523Z,87.10
2022-12-19T06:31:20.428Z,87.00
2022-12-19T06:33:47.269Z,87.30
2022-12-19T06:36:16.150Z,87.30
2022-12-19T06:38:42.896Z,87.10
2022-12-19T06:41:29.640Z,87.10
2022-12-19T06:44:01.006Z,86.90
2022-12-19T06:46:28.399Z,86.80
2022-12-19T06:48:55.245Z,86.60
2022-12-19T06:51:22.412Z,86.70
2022-12-19T06:53:49.483Z,86.80
2022-12-19T06:56:16.852Z,86.90
2022-12-19T06:58:43.626Z,86.80
2022-12-19T07:01:21.150Z,87.00
2022-12-19T07:03:49.155Z,87.00
2022-12-19T07:06:16.111Z,87.20
2022-12-19T07:08:42.928Z,87.00
2022-12-19T07:11:10.367Z,87.20
2022-12-19T07:13:37.164Z,87.10
2022-12-19T07:16:05.768Z,87.10
2022-12-19T07:18:38.131Z,87.00
2022-12-19T07:21:06.307Z,86.80
2022-12-19T07:23:34.651Z,86.90
2022-12-19T07:26:01.554Z,87.30
2022-12-19T07:28:28.546Z,86.80
2022-12-19T07:30:55.351Z,87.00
2022-12-19T07:33:22.304Z,86.70
2022-12-19T07:35:49.229Z,86.90
2022-12-19T07:38:15.982Z,86.70
2022-12-19T07:40:42.765Z,86.60
2022-12-19T07:43:10.057Z,86.60
2022-12-19T07:45:38.319Z,86.60
2022-12-19T07:48:06.669Z,87.00
2022-12-19T07:50:33.939Z,87.70
2022-12-19T07:53:01.050Z,87.70
2022-12-19T07:55:28.732Z,87.80
2022-12-19T07:57:55.583Z,87.90
2022-12-19T08:00:23.347Z,88.30
2022-12-19T08:02:50.162Z,87.90
2022-12-19T08:05:17.195Z,88.20
2022-12-19T08:07:44.131Z,88.20
2022-12-19T08:10:12.488Z,88.30
2022-12-19T08:12:39.363Z,88.20
2022-12-19T08:15:07.751Z,87.90
2022-12-19T08:17:35.509Z,87.60
2022-12-19T08:20:02.472Z,87.30
2022-12-19T08:22:31.297Z,87.10
2022-12-19T08:24:58.023Z,87.10
2022-12-19T08:27:25.123Z,87.20
2022-12-19T08:29:52.193Z,86.90
2022-12-19T08:32:21.460Z,87.10
2022-12-19T08:34:49.743Z,87.30
2022-12-19T08:37:17.133Z,86.50
2022-12-19T08:39:44.382Z,87.10
2022-12-19T08:42:11.124Z,86.90
2022-12-19T08:44:37.882Z,86.30
2022-12-19T08:47:04.805Z,85.90
2022-12-19T08:49:32.088Z,86.10
2022-12-19T08:51:58.885Z,86.10
2022-12-19T08:54:27.058Z,86.10
2022-12-19T08:56:53.949Z,86.10
2022-12-19T08:59:30.361Z,85.70
2022-12-19T09:01:57.614Z,85.90
2022-12-19T09:05:59.778Z,85.90
2022-12-19T09:07:12.530Z,85.80
2022-12-19T09:09:42.766Z,86.00
2022-12-19T09:12:09.491Z,85.90
2022-12-19T09:14:36.475Z,85.80
2022-12-19T09:17:04.775Z,86.00
2022-12-19T09:19:32.471Z,86.10
2022-12-19T09:21:59.420Z,86.10
2022-12-19T09:24:26.404Z,86.00
2022-12-19T09:26:53.533Z,85.90
2022-12-19T09:29:21.757Z,86.00
2022-12-19T09:31:56.321Z,86.00
2022-12-19T09:34:37.000Z,85.40
2022-12-19T09:37:10.378Z,85.60
2022-12-19T09:39:43.460Z,85.50
2022-12-19T09:42:30.993Z,85.60
2022-12-19T09:45:31.821Z,85.10
2022-12-19T09:48:01.200Z,86.50
2022-12-19T09:50:34.102Z,86.30
2022-12-19T09:53:07.978Z,86.00
2022-12-19T09:55:39.269Z,85.70
2022-12-19T09:58:23.990Z,85.60
2022-12-19T10:01:00.018Z,84.90
2022-12-19T10:03:39.697Z,85.00
2022-12-19T10:07:15.825Z,84.40
2022-12-19T10:09:54.117Z,84.20
2022-12-19T10:12:43.721Z,84.00
2022-12-19T10:15:35.464Z,83.60
2022-12-19T10:18:26.468Z,83.50
2022-12-19T10:21:08.936Z,82.90
2022-12-19T10:23:58.383Z,82.60
2022-12-19T10:26:36.348Z,82.50
2022-12-19T10:29:10.785Z,82.90
2022-12-19T10:31:53.470Z,82.60
2022-12-19T10:34:24.160Z,82.20
2022-12-19T10:37:26.851Z,82.20
2022-12-19T10:40:27.318Z,82.70
2022-12-19T10:43:30.696Z,82.60
2022-12-19T10:46:10.492Z,82.30
2022-12-19T10:48:37.272Z,82.50
2022-12-19T10:51:06.257Z,83.50
2022-12-19T10:53:33.997Z,83.40
2022-12-19T10:56:11.787Z,83.20
2022-12-19T10:58:43.113Z,84.00
2022-12-19T11:01:14.712Z,83.20
2022-12-19T11:03:44.122Z,83.40
2022-12-19T11:06:45.023Z,82.50
2022-12-19T11:09:27.986Z,82.50
2022-12-19T11:15:51.507Z,83.50
2022-12-19T11:19:30.398Z,83.70
2022-12-19T11:27:14.287Z,82.70
2022-12-19T11:29:19.366Z,83.20
2022-12-19T11:29:39.846Z,82.30
2022-12-19T11:30:47.111Z,82.80
2022-12-19T11:32:43.585Z,81.20
2022-12-19T11:35:24.347Z,80.80
2022-12-19T11:37:57.854Z,80.50
2022-12-19T11:40:36.637Z,81.10
2022-12-19T11:43:44.028Z,79.90
2022-12-19T11:46:36.679Z,80.40
2022-12-19T11:49:18.151Z,79.70
2022-12-19T11:51:51.178Z,80.00
2022-12-19T11:54:27.723Z,79.90
2022-12-19T11:56:56.075Z,80.00
2022-12-19T11:59:29.627Z,80.00
2022-12-19T12:02:06.562Z,80.10
2022-12-19T12:04:42.771Z,80.10
2022-12-19T12:07:24.254Z,79.30
2022-12-19T12:15:13.581Z,79.80
2022-12-19T12:20:18.497Z,79.90
2022-12-19T12:28:50.634Z,79.60
2022-12-19T12:31:04.352Z,78.80
2022-12-19T12:31:08.293Z,79.00
2022-12-19T12:31:53.068Z,79.70
2022-12-19T12:35:14.335Z,79.10
2022-12-19T12:35:32.824Z,79.40
2022-12-19T12:35:33.434Z,79.70
2022-12-19T12:41:08.853Z,80.20
2022-12-19T12:43:38.366Z,80.00
2022-12-19T12:46:09.461Z,80.70
2022-12-19T12:49:02.505Z,80.50
2022-12-19T12:51:32.834Z,80.30
2022-12-19T12:54:07.725Z,80.30
2022-12-19T12:56:36.506Z,80.50
2022-12-19T12:59:21.909Z,80.80
2022-12-19T13:02:01.905Z,80.00
2022-12-19T13:04:42.215Z,80.30
2022-12-19T13:07:28.251Z,80.50
2022-12-19T13:10:14.779Z,81.10
2022-12-19T13:13:03.847Z,80.70
2022-12-19T13:15:37.149Z,81.20
2022-12-19T13:18:12.836Z,82.60
2022-12-19T13:20:43.630Z,82.70
2022-12-19T13:23:29.235Z,82.60
2022-12-19T13:25:56.134Z,82.40
2022-12-19T13:28:22.820Z,82.30
2022-12-19T13:31:19.107Z,81.80
2022-12-19T13:33:52.075Z,81.90
2022-12-19T13:39:54.906Z,81.90
2022-12-19T13:40:04.240Z,80.90
2022-12-19T13:43:09.687Z,80.70
2022-12-19T13:45:39.740Z,81.40
2022-12-19T13:48:15.208Z,81.90
2022-12-19T13:50:47.663Z,82.10
2022-12-19T13:53:17.940Z,82.30
2022-12-19T13:55:44.855Z,82.10
2022-12-19T13:58:29.951Z,82.00
2022-12-19T14:01:07.245Z,81.80
2022-12-19T14:03:44.160Z,82.40
2022-12-19T14:06:40.564Z,82.80
2022-12-19T14:11:26.833Z,83.30
2022-12-19T14:14:00.451Z,83.30
2022-12-19T14:15:25.060Z,83.70
2022-12-19T14:17:51.813Z,84.00
2022-12-19T14:22:02.337Z,84.10
2022-12-19T14:23:16.242Z,83.90
2022-12-19T14:28:19.381Z,84.00
2022-12-19T14:29:01.736Z,83.90
2022-12-19T14:31:29.932Z,84.00
2022-12-19T14:34:43.204Z,84.60
2022-12-19T14:36:55.669Z,84.80
2022-12-19T14:39:29.661Z,84.80
2022-12-19T14:43:55.909Z,84.80
2022-12-19T14:52:35.435Z,85.20
2022-12-19T14:53:17.581Z,85.10
2022-12-19T14:54:28.917Z,84.80
2022-12-19T14:57:25.637Z,85.80
2022-12-19T15:01:09.514Z,85.50
2022-12-19T15:03:24.915Z,85.60
2022-12-19T15:05:52.632Z,85.60
2022-12-19T15:09:17.878Z,85.60
2022-12-19T15:11:53.852Z,86.10
2022-12-19T15:14:52.405Z,86.50
2022-12-19T15:17:24.925Z,86.80
2022-12-19T15:19:52.194Z,87.10
2022-12-19T15:22:19.674Z,87.20
2022-12-19T15:24:46.745Z,87.50
2022-12-19T15:27:16.203Z,88.00
2022-12-19T15:29:44.466Z,88.30
2022-12-19T15:32:16.533Z,88.10
2022-12-19T15:34:50.524Z,88.00
2022-12-19T15:37:18.044Z,87.70
2022-12-19T15:39:45.392Z,87.80
2022-12-19T15:42:23.753Z,88.10
2022-12-19T15:44:52.209Z,88.10
2022-12-19T15:47:31.180Z,88.70
2022-12-19T15:50:02.522Z,88.60
2022-12-19T15:52:30.028Z,89.00
2022-12-19T15:54:57.387Z,89.10
2022-12-19T15:57:38.415Z,89.30
2022-12-19T16:00:12.698Z,89.40
2022-12-19T16:05:29.298Z,89.40
2022-12-19T16:07:58.590Z,89.90
2022-12-19T16:10:26.418Z,90.00
2022-12-19T16:12:58.329Z,90.00
2022-12-19T16:15:29.522Z,90.00
2022-12-19T16:17:57.477Z,90.20
2022-12-19T16:20:30.288Z,90.20
2022-12-19T16:22:57.804Z,90.40
2022-12-19T16:25:31.266Z,90.40
2022-12-19T16:27:59.418Z,90.50
2022-12-19T16:30:31.331Z,90.60
2022-12-19T16:32:58.911Z,90.60
2022-12-19T16:36:02.453Z,90.50
2022-12-19T16:38:16.339Z,90.60
2022-12-19T16:40:43.797Z,90.70
2022-12-19T16:43:30.723Z,90.70
2022-12-19T16:46:01.421Z,90.90
2022-12-19T16:48:30.046Z,91.10
2022-12-19T16:50:59.028Z,91.10
2022-12-19T16:53:25.969Z,91.10
2022-12-19T16:55:55.239Z,91.10
2022-12-19T16:58:27.501Z,91.10
2022-12-19T17:00:55.850Z,91.10
2022-12-19T17:03:34.592Z,91.30
2022-12-19T17:06:01.693Z,91.50
2022-12-19T17:08:28.798Z,91.50
2022-12-19T17:10:55.910Z,91.60
2022-12-19T17:13:23.876Z,91.60
2022-12-19T17:15:56.307Z,91.60
2022-12-19T17:18:26.657Z,91.60
2022-12-19T17:20:53.440Z,91.60
2022-12-19T17:23:22.575Z,91.60
2022-12-19T17:25:50.207Z,91.60
2022-12-19T17:28:17.978Z,91.60
2022-12-19T17:30:50.636Z,91.60
2022-12-19T17:33:19.191Z,91.60
2022-12-19T17:35:46.755Z,91.60
2022-12-19T17:38:15.778Z,91.60
2022-12-19T17:40:43.352Z,91.70
2022-12-19T17:43:11.723Z,91.60
2022-12-19T17:45:40.429Z,91.70
2022-12-19T17:48:21.374Z,91.70
2022-12-19T17:50:48.449Z,91.90
2022-12-19T17:53:15.881Z,92.00
2022-12-19T17:55:43.250Z,92.00
2022-12-19T17:58:11.147Z,92.00
2022-12-19T18:00:39.344Z,91.90
2022-12-19T18:03:22.631Z,92.00
2022-12-19T18:05:51.787Z,92.30
2022-12-19T18:08:23.453Z,92.50
2022-12-19T18:10:51.575Z,92.70
2022-12-19T18:13:18.521Z,92.50
2022-12-19T18:15:46.180Z,92.60
2022-12-19T18:18:20.288Z,92.40
2022-12-19T18:20:47.131Z,92.40
2022-12-19T18:23:17.523Z,92.20
2022-12-19T18:25:45.123Z,92.00
2022-12-19T18:28:12.343Z,92.10
2022-12-19T18:30:39.622Z,92.10
2022-12-19T18:33:07.939Z,92.00
2022-12-19T18:35:41.725Z,92.30
2022-12-19T18:38:14.912Z,92.20
2022-12-19T18:40:42.150Z,92.30
2022-12-19T18:43:13.247Z,92.40
2022-12-19T18:45:42.738Z,92.40
2022-12-19T18:48:26.099Z,92.50
2022-12-19T18:50:54.923Z,92.60
2022-12-19T18:53:28.543Z,92.60
2022-12-19T18:56:01.495Z,92.60
2022-12-19T18:58:29.009Z,92.50
2022-12-19T19:00:59.429Z,92.30
2022-12-19T19:03:32.812Z,91.50
2022-12-19T19:06:00.155Z,90.70
2022-12-19T19:08:32.594Z,90.20
2022-12-19T19:11:00.925Z,90.10
2022-12-19T19:13:27.966Z,90.00
2022-12-19T19:16:01.484Z,89.90
2022-12-19T19:18:36.099Z,90.00
2022-12-19T19:21:05.487Z,89.80
2022-12-19T19:23:43.186Z,89.70
2022-12-19T19:26:10.062Z,89.30
2022-12-19T19:28:39.268Z,89.30
2022-12-19T19:31:10.392Z,89.30
2022-12-19T19:33:40.624Z,89.30
2022-12-19T19:36:12.681Z,88.90
2022-12-19T19:38:42.898Z,89.20
2022-12-19T19:41:09.851Z,89.30
2022-12-19T19:43:36.715Z,90.10
2022-12-19T19:46:03.641Z,89.90
2022-12-19T19:48:30.987Z,89.90
2022-12-19T19:50:58.096Z,90.20
2022-12-19T19:53:25.185Z,90.30
2022-12-19T19:56:00.657Z,90.60
2022-12-19T19:58:30.717Z,90.70
2022-12-19T20:00:57.630Z,90.90
2022-12-19T20:03:24.914Z,90.60
2022-12-19T20:05:59.643Z,90.60
2022-12-19T20:08:26.435Z,90.90
2022-12-19T20:10:57.623Z,90.70
2022-12-19T20:13:24.877Z,91.20
2022-12-19T20:15:52.007Z,91.40
2022-12-19T20:18:18.910Z,91.90
2022-12-19T20:20:47.761Z,91.60
2022-12-19T20:23:14.583Z,91.20
2022-12-19T20:25:43.029Z,91.10
2022-12-19T20:28:10.193Z,91.50
2022-12-19T20:30:38.136Z,91.70
2022-12-19T20:33:04.903Z,91.50
2022-12-19T20:35:31.631Z,91.70
2022-12-19T20:37:58.387Z,91.10
2022-12-19T20:40:25.478Z,90.40
2022-12-19T20:42:52.214Z,89.90
2022-12-19T20:45:19.059Z,90.10
2022-12-19T20:47:45.830Z,90.50
2022-12-19T20:50:12.863Z,91.20
2022-12-19T20:52:39.645Z,91.70
2022-12-19T20:55:07.055Z,91.60
2022-12-19T20:57:33.828Z,91.50
2022-12-19T21:00:00.587Z,91.50
2022-12-19T21:02:27.575Z,91.60
2022-12-19T21:04:54.589Z,91.50
2022-12-19T21:07:21.396Z,91.60
2022-12-19T21:09:50.106Z,91.90
2022-12-19T21:12:16.927Z,91.70
2022-12-19T21:14:43.669Z,91.60
2022-12-19T21:17:10.416Z,91.80
2022-12-19T21:19:37.156Z,91.70
2022-12-19T21:22:03.945Z,91.50
2022-12-19T21:24:32.885Z,92.00
2022-12-19T21:27:00.392Z,92.20
2022-12-19T21:29:27.125Z,91.70
2022-12-19T21:31:53.973Z,91.80
2022-12-19T21:34:20.768Z,92.20
2022-12-19T21:36:47.499Z,92.40
2022-12-19T21:39:14.292Z,92.30
2022-12-19T21:41:40.994Z,92.10
2022-12-19T21:44:07.756Z,92.30
2022-12-19T21:46:34.621Z,92.30
2022-12-19T21:49:03.154Z,92.10
2022-12-19T21:51:31.714Z,92.20
2022-12-19T21:54:00.693Z,92.20
2022-12-19T21:56:41.579Z,91.90
2022-12-19T21:59:13.533Z,91.80
2022-12-19T22:01:41.671Z,92.10
2022-12-19T22:04:22.416Z,92.50
2022-12-19T22:06:50.519Z,92.90
2022-12-19T22:09:21.189Z,92.90
2022-12-19T22:11:48.076Z,92.40
2022-12-19T22:14:16.241Z,92.30
2022-12-19T22:16:43.220Z,92.10
2022-12-19T22:19:14.499Z,92.30
2022-12-19T22:21:41.409Z,92.40
2022-12-19T22:24:10.737Z,92.40
2022-12-19T22:26:37.952Z,92.50
2022-12-19T22:29:10.411Z,92.50
2022-12-19T22:31:38.785Z,92.60
2022-12-19T22:34:11.432Z,92.70
2022-12-19T22:36:41.306Z,92.80
2022-12-19T22:39:11.375Z,93.00
2022-12-19T22:41:39.471Z,93.10
2022-12-19T22:44:06.962Z,93.00
2022-12-19T22:46:36.011Z,93.00
2022-12-19T22:49:06.795Z,92.90
2022-12-19T22:51:35.787Z,92.90
2022-12-19T22:54:03.349Z,93.10
2022-12-19T22:56:31.686Z,93.20
2022-12-19T22:59:04.252Z,93.10
2022-12-19T23:01:43.023Z,93.10
2022-12-19T23:04:13.927Z,93.00
2022-12-19T23:06:41.332Z,93.10
2022-12-19T23:09:12.230Z,93.10
2022-12-19T23:11:40.836Z,92.90
2022-12-19T23:14:08.934Z,93.00
2022-12-19T23:16:35.854Z,93.10
2022-12-19T23:19:04.015Z,93.10
2022-12-19T23:21:30.813Z,93.10
2022-12-19T23:23:57.578Z,93.10
2022-12-19T23:26:30.468Z,93.20
2022-12-19T23:28:59.814Z,93.30
2022-12-19T23:31:27.657Z,93.20
2022-12-19T23:33:55.751Z,93.30
2022-12-19T23:36:45.104Z,93.10
2022-12-19T23:39:11.140Z,93.00
2022-12-19T23:41:38.353Z,93.10
2022-12-19T23:44:05.463Z,93.10
2022-12-19T23:46:32.311Z,93.10
2022-12-19T23:48:59.132Z,93.20
2022-12-19T23:51:27.502Z,93.10
2022-12-19T23:53:55.626Z,93.20
2022-12-19T23:56:30.914Z,93.10
2022-12-19T23:58:58.267Z,93.10
